Vitim, Russia
Current Conditions -  °F | °C
As of 9:00 AM on Saturday 22 Nov 2014 (Local Time) from UIBB Reporting Station
Overcast Overcast  
Wind Chill: 11°   Ceiling: 1800
Heat Index: 21°   Visibility: 3mi
Dew Point: 16°   Wind: 9mph
Humidity: 80%   Direction: 210°SSW
Pressure: 29.62"   Gusts: NA
Location:  59.45°N, 112.56°E
Report Text: UIBB 220000Z 21004MPS P5000 BKN018CB OVC100 M06/M09 Q1003 NOSIGRMK QFE710/0946 30490230
Loading
Personal Weather Stations






























Interactive Weather Map New forecast layout! Learn more

10-Day Weather Forecast

Advertisements
Track Severe Weather on mobile